sensor_id;sensor_type;location;lat;lon;timestamp;temperature;humidity
9103;DHT22;4587;51.434;6.788;2022-11-15T00:00:24;11.00;99.90
9103;DHT22;4587;51.434;6.788;2022-11-15T00:02:49;11.10;99.90
9103;DHT22;4587;51.434;6.788;2022-11-15T00:05:15;11.10;99.90
9103;DHT22;4587;51.434;6.788;2022-11-15T00:07:40;11.10;99.90
9103;DHT22;4587;51.434;6.788;2022-11-15T00:10:06;11.10;99.90
9103;DHT22;4587;51.434;6.788;2022-11-15T00:12:32;11.10;99.90
9103;DHT22;4587;51.434;6.788;2022-11-15T00:14:57;11.10;99.90
9103;DHT22;4587;51.434;6.788;2022-11-15T00:17:23;11.20;99.90
9103;DHT22;4587;51.434;6.788;2022-11-15T00:19:48;11.10;99.90
9103;DHT22;4587;51.434;6.788;2022-11-15T00:22:14;11.20;99.90
9103;DHT22;4587;51.434;6.788;2022-11-15T00:24:40;11.20;99.90
9103;DHT22;4587;51.434;6.788;2022-11-15T00:27:05;11.30;99.90
9103;DHT22;4587;51.434;6.788;2022-11-15T00:29:31;11.20;99.90
9103;DHT22;4587;51.434;6.788;2022-11-15T00:31:56;11.20;99.90
9103;DHT22;4587;51.434;6.788;2022-11-15T00:34:22;11.30;99.90
9103;DHT22;4587;51.434;6.788;2022-11-15T00:36:48;11.30;99.90
9103;DHT22;4587;51.434;6.788;2022-11-15T00:39:13;11.30;99.90
9103;DHT22;4587;51.434;6.788;2022-11-15T00:41:39;11.40;99.90
9103;DHT22;4587;51.434;6.788;2022-11-15T00:44:04;11.50;99.90
9103;DHT22;4587;51.434;6.788;2022-11-15T00:46:30;11.50;99.90
9103;DHT22;4587;51.434;6.788;2022-11-15T00:48:55;11.50;99.90
9103;DHT22;4587;51.434;6.788;2022-11-15T00:51:21;11.50;99.90
9103;DHT22;4587;51.434;6.788;2022-11-15T00:53:46;11.50;99.90
9103;DHT22;4587;51.434;6.788;2022-11-15T00:56:12;11.60;99.90
9103;DHT22;4587;51.434;6.788;2022-11-15T00:58:37;11.60;99.90
9103;DHT22;4587;51.434;6.788;2022-11-15T01:01:12;11.60;99.90
9103;DHT22;4587;51.434;6.788;2022-11-15T01:03:38;11.60;99.90
9103;DHT22;4587;51.434;6.788;2022-11-15T01:06:06;11.60;99.90
9103;DHT22;4587;51.434;6.788;2022-11-15T01:08:31;11.60;99.90
9103;DHT22;4587;51.434;6.788;2022-11-15T01:11:04;11.60;99.90
9103;DHT22;4587;51.434;6.788;2022-11-15T01:13:31;11.60;99.90
9103;DHT22;4587;51.434;6.788;2022-11-15T01:15:57;11.80;99.90
9103;DHT22;4587;51.434;6.788;2022-11-15T01:18:23;11.80;99.90
9103;DHT22;4587;51.434;6.788;2022-11-15T01:20:48;11.80;99.90
9103;DHT22;4587;51.434;6.788;2022-11-15T01:23:14;11.80;99.90
9103;DHT22;4587;51.434;6.788;2022-11-15T01:25:40;11.80;99.90
9103;DHT22;4587;51.434;6.788;2022-11-15T01:28:05;11.80;99.90
9103;DHT22;4587;51.434;6.788;2022-11-15T01:30:31;11.90;99.90
9103;DHT22;4587;51.434;6.788;2022-11-15T01:32:57;11.90;99.90
9103;DHT22;4587;51.434;6.788;2022-11-15T01:35:22;12.00;99.90
9103;DHT22;4587;51.434;6.788;2022-11-15T01:37:48;12.00;99.90
9103;DHT22;4587;51.434;6.788;2022-11-15T01:40:14;12.10;99.90
9103;DHT22;4587;51.434;6.788;2022-11-15T01:42:39;12.00;99.90
9103;DHT22;4587;51.434;6.788;2022-11-15T01:45:05;12.10;99.90
9103;DHT22;4587;51.434;6.788;2022-11-15T01:47:35;12.00;99.90
9103;DHT22;4587;51.434;6.788;2022-11-15T01:50:08;12.10;99.90
9103;DHT22;4587;51.434;6.788;2022-11-15T01:52:35;12.00;99.90
9103;DHT22;4587;51.434;6.788;2022-11-15T01:55:25;12.00;99.90
9103;DHT22;4587;51.434;6.788;2022-11-15T01:57:57;12.00;99.90
9103;DHT22;4587;51.434;6.788;2022-11-15T02:00:23;12.00;99.90
9103;DHT22;4587;51.434;6.788;2022-11-15T02:02:48;12.00;99.90
9103;DHT22;4587;51.434;6.788;2022-11-15T02:05:14;12.00;99.90
9103;DHT22;4587;51.434;6.788;2022-11-15T02:07:40;12.00;99.90
9103;DHT22;4587;51.434;6.788;2022-11-15T02:10:16;12.00;99.90
9103;DHT22;4587;51.434;6.788;2022-11-15T02:12:43;12.10;99.90
9103;DHT22;4587;51.434;6.788;2022-11-15T02:15:09;12.10;99.90
9103;DHT22;4587;51.434;6.788;2022-11-15T02:23:04;12.20;99.90
9103;DHT22;4587;51.434;6.788;2022-11-15T02:31:22;12.20;99.90
9103;DHT22;4587;51.434;6.788;2022-11-15T02:39:21;12.20;99.90
9103;DHT22;4587;51.434;6.788;2022-11-15T02:42:09;12.30;99.90
9103;DHT22;4587;51.434;6.788;2022-11-15T02:44:58;12.30;99.90
9103;DHT22;4587;51.434;6.788;2022-11-15T02:47:31;12.40;99.90
9103;DHT22;4587;51.434;6.788;2022-11-15T02:50:03;12.40;99.90
9103;DHT22;4587;51.434;6.788;2022-11-15T02:52:31;12.40;99.90
9103;DHT22;4587;51.434;6.788;2022-11-15T02:54:59;12.30;99.90
9103;DHT22;4587;51.434;6.788;2022-11-15T02:57:51;12.30;99.90
9103;DHT22;4587;51.434;6.788;2022-11-15T03:00:18;12.40;99.90
9103;DHT22;4587;51.434;6.788;2022-11-15T03:08:38;12.40;99.90
9103;DHT22;4587;51.434;6.788;2022-11-15T03:11:12;12.40;99.90
9103;DHT22;4587;51.434;6.788;2022-11-15T03:16:43;12.40;99.90
9103;DHT22;4587;51.434;6.788;2022-11-15T03:21:46;12.60;99.90
9103;DHT22;4587;51.434;6.788;2022-11-15T03:24:14;12.60;99.90
9103;DHT22;4587;51.434;6.788;2022-11-15T03:26:43;12.70;99.90
9103;DHT22;4587;51.434;6.788;2022-11-15T03:29:15;12.70;99.90
9103;DHT22;4587;51.434;6.788;2022-11-15T03:31:46;12.60;99.90
9103;DHT22;4587;51.434;6.788;2022-11-15T03:34:27;12.70;99.90
9103;DHT22;4587;51.434;6.788;2022-11-15T03:36:54;12.70;99.90
9103;DHT22;4587;51.434;6.788;2022-11-15T03:39:21;12.60;99.90
9103;DHT22;4587;51.434;6.788;2022-11-15T03:41:59;12.60;99.90
9103;DHT22;4587;51.434;6.788;2022-11-15T03:44:40;12.60;99.90
9103;DHT22;4587;51.434;6.788;2022-11-15T03:47:25;12.70;99.90
9103;DHT22;4587;51.434;6.788;2022-11-15T03:50:01;12.70;99.90
9103;DHT22;4587;51.434;6.788;2022-11-15T03:52:32;12.70;99.90
9103;DHT22;4587;51.434;6.788;2022-11-15T03:55:00;12.70;99.90
9103;DHT22;4587;51.434;6.788;2022-11-15T03:57:26;12.80;99.90
9103;DHT22;4587;51.434;6.788;2022-11-15T03:59:52;12.80;99.90
9103;DHT22;4587;51.434;6.788;2022-11-15T04:02:17;12.90;99.90
9103;DHT22;4587;51.434;6.788;2022-11-15T04:04:43;12.90;99.90
9103;DHT22;4587;51.434;6.788;2022-11-15T04:07:12;12.90;99.90
9103;DHT22;4587;51.434;6.788;2022-11-15T04:09:37;12.80;99.90
9103;DHT22;4587;51.434;6.788;2022-11-15T04:12:23;12.80;99.90
9103;DHT22;4587;51.434;6.788;2022-11-15T04:15:00;12.80;99.90
9103;DHT22;4587;51.434;6.788;2022-11-15T04:17:42;12.80;99.90
9103;DHT22;4587;51.434;6.788;2022-11-15T04:20:11;12.90;99.90
9103;DHT22;4587;51.434;6.788;2022-11-15T04:22:56;13.00;99.90
9103;DHT22;4587;51.434;6.788;2022-11-15T04:25:41;12.90;99.90
9103;DHT22;4587;51.434;6.788;2022-11-15T04:28:07;12.90;99.90
9103;DHT22;4587;51.434;6.788;2022-11-15T04:30:33;13.00;99.90
9103;DHT22;4587;51.434;6.788;2022-11-15T04:32:59;13.00;99.90
9103;DHT22;4587;51.434;6.788;2022-11-15T04:35:24;12.90;99.90
9103;DHT22;4587;51.434;6.788;2022-11-15T04:37:50;12.90;99.90
9103;DHT22;4587;51.434;6.788;2022-11-15T04:40:16;13.00;99.90
9103;DHT22;4587;51.434;6.788;2022-11-15T04:42:42;13.00;99.90
9103;DHT22;4587;51.434;6.788;2022-11-15T04:45:11;13.10;99.90
9103;DHT22;4587;51.434;6.788;2022-11-15T04:47:36;13.00;99.90
9103;DHT22;4587;51.434;6.788;2022-11-15T04:50:02;13.00;99.90
9103;DHT22;4587;51.434;6.788;2022-11-15T04:52:28;13.00;99.90
9103;DHT22;4587;51.434;6.788;2022-11-15T04:54:54;13.00;99.90
9103;DHT22;4587;51.434;6.788;2022-11-15T04:57:19;13.00;99.90
9103;DHT22;4587;51.434;6.788;2022-11-15T04:59:45;13.10;99.90
9103;DHT22;4587;51.434;6.788;2022-11-15T05:02:10;13.10;99.90
9103;DHT22;4587;51.434;6.788;2022-11-15T05:04:36;13.10;99.90
9103;DHT22;4587;51.434;6.788;2022-11-15T05:07:02;13.10;99.90
9103;DHT22;4587;51.434;6.788;2022-11-15T05:09:29;13.10;99.90
9103;DHT22;4587;51.434;6.788;2022-11-15T05:11:55;13.10;99.90
9103;DHT22;4587;51.434;6.788;2022-11-15T05:14:20;13.10;99.90
9103;DHT22;4587;51.434;6.788;2022-11-15T05:16:46;13.10;99.90
9103;DHT22;4587;51.434;6.788;2022-11-15T05:19:11;13.10;99.90
9103;DHT22;4587;51.434;6.788;2022-11-15T05:21:37;13.00;99.90
9103;DHT22;4587;51.434;6.788;2022-11-15T05:24:03;13.00;99.90
9103;DHT22;4587;51.434;6.788;2022-11-15T05:26:29;13.10;99.90
9103;DHT22;4587;51.434;6.788;2022-11-15T05:28:58;13.10;99.90
9103;DHT22;4587;51.434;6.788;2022-11-15T05:31:25;13.20;99.90
9103;DHT22;4587;51.434;6.788;2022-11-15T05:33:51;13.10;99.90
9103;DHT22;4587;51.434;6.788;2022-11-15T05:36:38;13.00;99.90
9103;DHT22;4587;51.434;6.788;2022-11-15T05:39:05;13.10;99.90
9103;DHT22;4587;51.434;6.788;2022-11-15T05:41:43;13.10;99.90
9103;DHT22;4587;51.434;6.788;2022-11-15T05:44:12;13.00;99.90
9103;DHT22;4587;51.434;6.788;2022-11-15T05:46:39;13.10;99.90
9103;DHT22;4587;51.434;6.788;2022-11-15T05:49:07;13.10;99.90
9103;DHT22;4587;51.434;6.788;2022-11-15T05:51:35;13.00;99.90
9103;DHT22;4587;51.434;6.788;2022-11-15T05:54:01;13.00;99.90
9103;DHT22;4587;51.434;6.788;2022-11-15T05:56:28;13.00;99.90
9103;DHT22;4587;51.434;6.788;2022-11-15T05:58:56;13.00;99.90
9103;DHT22;4587;51.434;6.788;2022-11-15T06:01:23;13.00;99.90
9103;DHT22;4587;51.434;6.788;2022-11-15T06:03:50;13.00;99.90
9103;DHT22;4587;51.434;6.788;2022-11-15T06:06:15;13.00;99.90
9103;DHT22;4587;51.434;6.788;2022-11-15T06:08:41;13.00;99.90
9103;DHT22;4587;51.434;6.788;2022-11-15T06:11:07;13.00;99.90
9103;DHT22;4587;51.434;6.788;2022-11-15T06:13:33;13.00;99.90
9103;DHT22;4587;51.434;6.788;2022-11-15T06:15:59;13.00;99.90
9103;DHT22;4587;51.434;6.788;2022-11-15T06:18:25;13.00;99.90
9103;DHT22;4587;51.434;6.788;2022-11-15T06:20:51;12.90;99.90
9103;DHT22;4587;51.434;6.788;2022-11-15T06:23:16;12.90;99.90
9103;DHT22;4587;51.434;6.788;2022-11-15T06:25:42;12.90;99.90
9103;DHT22;4587;51.434;6.788;2022-11-15T06:28:07;12.90;99.90
9103;DHT22;4587;51.434;6.788;2022-11-15T06:30:33;12.90;99.90
9103;DHT22;4587;51.434;6.788;2022-11-15T06:33:03;12.90;99.90
9103;DHT22;4587;51.434;6.788;2022-11-15T06:35:32;12.90;99.90
9103;DHT22;4587;51.434;6.788;2022-11-15T06:38:03;12.90;99.90
9103;DHT22;4587;51.434;6.788;2022-11-15T06:40:29;12.90;99.90
9103;DHT22;4587;51.434;6.788;2022-11-15T06:42:58;12.80;99.90
9103;DHT22;4587;51.434;6.788;2022-11-15T06:45:25;12.90;99.90
9103;DHT22;4587;51.434;6.788;2022-11-15T06:47:50;13.00;99.90
9103;DHT22;4587;51.434;6.788;2022-11-15T06:50:16;13.00;99.90
9103;DHT22;4587;51.434;6.788;2022-11-15T06:52:41;12.80;99.90
9103;DHT22;4587;51.434;6.788;2022-11-15T06:55:08;12.90;99.90
9103;DHT22;4587;51.434;6.788;2022-11-15T06:57:33;12.90;99.90
9103;DHT22;4587;51.434;6.788;2022-11-15T06:59:59;13.00;99.90
9103;DHT22;4587;51.434;6.788;2022-11-15T07:02:25;12.90;99.90
9103;DHT22;4587;51.434;6.788;2022-11-15T07:04:50;12.90;99.90
9103;DHT22;4587;51.434;6.788;2022-11-15T07:07:16;12.90;99.90
9103;DHT22;4587;51.434;6.788;2022-11-15T07:09:41;12.90;99.90
9103;DHT22;4587;51.434;6.788;2022-11-15T07:12:07;12.80;99.90
9103;DHT22;4587;51.434;6.788;2022-11-15T07:14:33;12.80;99.90
9103;DHT22;4587;51.434;6.788;2022-11-15T07:16:58;12.80;99.90
9103;DHT22;4587;51.434;6.788;2022-11-15T07:19:23;12.90;99.90
9103;DHT22;4587;51.434;6.788;2022-11-15T07:21:49;12.90;99.90
9103;DHT22;4587;51.434;6.788;2022-11-15T07:24:14;12.90;99.90
9103;DHT22;4587;51.434;6.788;2022-11-15T07:26:40;12.90;99.90
9103;DHT22;4587;51.434;6.788;2022-11-15T07:29:06;12.90;99.90
9103;DHT22;4587;51.434;6.788;2022-11-15T07:31:32;12.90;99.90
9103;DHT22;4587;51.434;6.788;2022-11-15T07:33:57;12.90;99.90
9103;DHT22;4587;51.434;6.788;2022-11-15T07:36:23;12.90;99.90
9103;DHT22;4587;51.434;6.788;2022-11-15T07:38:48;12.90;99.90
9103;DHT22;4587;51.434;6.788;2022-11-15T07:41:14;13.00;99.90
9103;DHT22;4587;51.434;6.788;2022-11-15T07:43:39;13.00;99.90
9103;DHT22;4587;51.434;6.788;2022-11-15T07:46:06;13.00;99.90
9103;DHT22;4587;51.434;6.788;2022-11-15T07:48:35;13.00;99.90
9103;DHT22;4587;51.434;6.788;2022-11-15T07:51:00;13.00;99.90
9103;DHT22;4587;51.434;6.788;2022-11-15T07:53:26;13.00;99.90
9103;DHT22;4587;51.434;6.788;2022-11-15T07:55:51;13.00;99.90
9103;DHT22;4587;51.434;6.788;2022-11-15T07:58:19;13.10;99.90
9103;DHT22;4587;51.434;6.788;2022-11-15T08:00:44;13.20;99.90
9103;DHT22;4587;51.434;6.788;2022-11-15T08:03:12;13.10;99.90
9103;DHT22;4587;51.434;6.788;2022-11-15T08:05:38;13.10;99.90
9103;DHT22;4587;51.434;6.788;2022-11-15T08:08:06;13.10;99.90
9103;DHT22;4587;51.434;6.788;2022-11-15T08:10:32;13.00;99.90
9103;DHT22;4587;51.434;6.788;2022-11-15T08:13:03;12.90;99.90
9103;DHT22;4587;51.434;6.788;2022-11-15T08:15:29;12.80;99.90
9103;DHT22;4587;51.434;6.788;2022-11-15T08:18:00;12.70;99.90
9103;DHT22;4587;51.434;6.788;2022-11-15T08:20:27;12.60;99.90
9103;DHT22;4587;51.434;6.788;2022-11-15T08:22:55;12.60;99.90
9103;DHT22;4587;51.434;6.788;2022-11-15T08:25:22;12.50;99.90
9103;DHT22;4587;51.434;6.788;2022-11-15T08:27:47;12.40;99.90
9103;DHT22;4587;51.434;6.788;2022-11-15T08:30:16;12.40;99.90
9103;DHT22;4587;51.434;6.788;2022-11-15T08:32:41;12.60;99.90
9103;DHT22;4587;51.434;6.788;2022-11-15T08:35:07;12.50;99.90
9103;DHT22;4587;51.434;6.788;2022-11-15T08:37:33;12.50;99.90
9103;DHT22;4587;51.434;6.788;2022-11-15T08:39:59;12.50;99.90
9103;DHT22;4587;51.434;6.788;2022-11-15T08:42:24;12.60;99.90
9103;DHT22;4587;51.434;6.788;2022-11-15T08:44:50;12.60;99.90
9103;DHT22;4587;51.434;6.788;2022-11-15T08:47:15;12.60;99.90
9103;DHT22;4587;51.434;6.788;2022-11-15T08:49:41;12.60;99.90
9103;DHT22;4587;51.434;6.788;2022-11-15T08:52:07;12.50;99.90
9103;DHT22;4587;51.434;6.788;2022-11-15T08:54:32;12.50;99.90
9103;DHT22;4587;51.434;6.788;2022-11-15T08:56:58;12.50;99.90
9103;DHT22;4587;51.434;6.788;2022-11-15T08:59:23;12.50;99.90
9103;DHT22;4587;51.434;6.788;2022-11-15T09:01:49;12.50;99.90
9103;DHT22;4587;51.434;6.788;2022-11-15T09:04:15;12.50;99.90
9103;DHT22;4587;51.434;6.788;2022-11-15T09:06:40;12.50;99.90
9103;DHT22;4587;51.434;6.788;2022-11-15T09:09:06;12.40;99.90
9103;DHT22;4587;51.434;6.788;2022-11-15T09:11:31;12.40;99.90
9103;DHT22;4587;51.434;6.788;2022-11-15T09:13:57;12.50;99.90
9103;DHT22;4587;51.434;6.788;2022-11-15T09:16:22;12.60;99.90
9103;DHT22;4587;51.434;6.788;2022-11-15T09:18:48;12.80;99.90
9103;DHT22;4587;51.434;6.788;2022-11-15T09:21:14;13.40;99.90
9103;DHT22;4587;51.434;6.788;2022-11-15T09:23:39;13.70;99.90
9103;DHT22;4587;51.434;6.788;2022-11-15T09:26:05;13.90;99.90
9103;DHT22;4587;51.434;6.788;2022-11-15T09:28:31;14.00;99.90
9103;DHT22;4587;51.434;6.788;2022-11-15T09:31:02;14.20;99.90
9103;DHT22;4587;51.434;6.788;2022-11-15T09:33:28;14.20;99.90
9103;DHT22;4587;51.434;6.788;2022-11-15T09:35:57;14.10;99.90
9103;DHT22;4587;51.434;6.788;2022-11-15T09:38:24;14.00;99.90
9103;DHT22;4587;51.434;6.788;2022-11-15T09:40:57;14.00;99.90
9103;DHT22;4587;51.434;6.788;2022-11-15T09:43:29;14.00;99.90
9103;DHT22;4587;51.434;6.788;2022-11-15T09:48:57;14.10;99.90
9103;DHT22;4587;51.434;6.788;2022-11-15T09:51:36;14.10;99.90
9103;DHT22;4587;51.434;6.788;2022-11-15T09:54:28;14.20;99.90
9103;DHT22;4587;51.434;6.788;2022-11-15T10:00:06;14.00;99.90
9103;DHT22;4587;51.434;6.788;2022-11-15T10:03:16;14.00;99.90
9103;DHT22;4587;51.434;6.788;2022-11-15T10:05:47;14.00;99.90
9103;DHT22;4587;51.434;6.788;2022-11-15T10:11:10;14.00;99.90
9103;DHT22;4587;51.434;6.788;2022-11-15T10:13:41;14.10;99.90
9103;DHT22;4587;51.434;6.788;2022-11-15T10:19:10;14.00;99.90
9103;DHT22;4587;51.434;6.788;2022-11-15T10:22:09;14.10;99.90
9103;DHT22;4587;51.434;6.788;2022-11-15T10:24:41;14.10;99.90
9103;DHT22;4587;51.434;6.788;2022-11-15T10:27:18;14.10;99.90
9103;DHT22;4587;51.434;6.788;2022-11-15T10:29:48;14.10;99.90
9103;DHT22;4587;51.434;6.788;2022-11-15T10:32:20;14.10;99.90
9103;DHT22;4587;51.434;6.788;2022-11-15T10:34:49;14.10;99.90
9103;DHT22;4587;51.434;6.788;2022-11-15T10:37:28;14.10;99.90
9103;DHT22;4587;51.434;6.788;2022-11-15T10:40:21;14.20;99.90
9103;DHT22;4587;51.434;6.788;2022-11-15T10:42:48;14.30;99.90
9103;DHT22;4587;51.434;6.788;2022-11-15T10:45:30;14.40;99.90
9103;DHT22;4587;51.434;6.788;2022-11-15T10:50:37;14.40;99.90
9103;DHT22;4587;51.434;6.788;2022-11-15T10:53:03;14.40;99.90
9103;DHT22;4587;51.434;6.788;2022-11-15T10:55:31;14.40;99.90
9103;DHT22;4587;51.434;6.788;2022-11-15T10:58:51;14.50;99.90
9103;DHT22;4587;51.434;6.788;2022-11-15T11:00:53;14.50;99.90
9103;DHT22;4587;51.434;6.788;2022-11-15T11:03:31;14.50;99.90
9103;DHT22;4587;51.434;6.788;2022-11-15T11:06:17;14.50;99.90
9103;DHT22;4587;51.434;6.788;2022-11-15T11:08:57;14.50;99.90
9103;DHT22;4587;51.434;6.788;2022-11-15T11:11:24;14.50;99.90
9103;DHT22;4587;51.434;6.788;2022-11-15T11:13:50;14.40;99.90
9103;DHT22;4587;51.434;6.788;2022-11-15T11:16:41;14.40;99.90
9103;DHT22;4587;51.434;6.788;2022-11-15T11:19:18;14.40;99.90
9103;DHT22;4587;51.434;6.788;2022-11-15T11:24:59;14.50;99.90
9103;DHT22;4587;51.434;6.788;2022-11-15T11:30:24;14.50;99.90
9103;DHT22;4587;51.434;6.788;2022-11-15T11:33:10;14.50;99.90
9103;DHT22;4587;51.434;6.788;2022-11-15T11:38:37;14.50;99.90
9103;DHT22;4587;51.434;6.788;2022-11-15T11:43:51;14.40;99.90
9103;DHT22;4587;51.434;6.788;2022-11-15T11:46:48;14.50;99.90
9103;DHT22;4587;51.434;6.788;2022-11-15T11:49:16;14.40;99.90
9103;DHT22;4587;51.434;6.788;2022-11-15T11:54:59;14.30;99.90
9103;DHT22;4587;51.434;6.788;2022-11-15T11:57:34;14.30;99.90
9103;DHT22;4587;51.434;6.788;2022-11-15T12:00:19;14.30;99.90
9103;DHT22;4587;51.434;6.788;2022-11-15T12:05:42;14.40;99.90
9103;DHT22;4587;51.434;6.788;2022-11-15T12:08:25;14.40;99.90
9103;DHT22;4587;51.434;6.788;2022-11-15T12:11:00;14.30;99.90
9103;DHT22;4587;51.434;6.788;2022-11-15T12:13:30;14.30;99.90
9103;DHT22;4587;51.434;6.788;2022-11-15T12:16:22;14.40;99.90
9103;DHT22;4587;51.434;6.788;2022-11-15T12:18:54;14.50;99.90
9103;DHT22;4587;51.434;6.788;2022-11-15T12:21:44;14.60;99.90
9103;DHT22;4587;51.434;6.788;2022-11-15T12:24:23;14.60;99.90
9103;DHT22;4587;51.434;6.788;2022-11-15T12:26:55;14.60;99.90
9103;DHT22;4587;51.434;6.788;2022-11-15T12:29:36;14.60;99.90
9103;DHT22;4587;51.434;6.788;2022-11-15T12:32:03;14.60;99.90
9103;DHT22;4587;51.434;6.788;2022-11-15T12:34:43;14.60;99.90
9103;DHT22;4587;51.434;6.788;2022-11-15T12:40:18;14.60;99.90
9103;DHT22;4587;51.434;6.788;2022-11-15T12:45:41;14.60;99.90
9103;DHT22;4587;51.434;6.788;2022-11-15T12:58:58;14.60;99.90
9103;DHT22;4587;51.434;6.788;2022-11-15T13:04:13;14.70;99.90
9103;DHT22;4587;51.434;6.788;2022-11-15T13:06:55;14.80;99.90
9103;DHT22;4587;51.434;6.788;2022-11-15T13:15:00;14.80;99.90
9103;DHT22;4587;51.434;6.788;2022-11-15T13:17:57;14.80;99.90
9103;DHT22;4587;51.434;6.788;2022-11-15T13:20:30;14.80;99.90
9103;DHT22;4587;51.434;6.788;2022-11-15T13:23:13;14.80;99.90
9103;DHT22;4587;51.434;6.788;2022-11-15T13:26:10;14.70;99.90
9103;DHT22;4587;51.434;6.788;2022-11-15T13:28:48;14.60;99.90
9103;DHT22;4587;51.434;6.788;2022-11-15T13:31:30;14.60;99.90
9103;DHT22;4587;51.434;6.788;2022-11-15T13:34:03;14.50;99.90
9103;DHT22;4587;51.434;6.788;2022-11-15T13:36:39;14.60;99.90
9103;DHT22;4587;51.434;6.788;2022-11-15T13:39:34;14.60;99.90
9103;DHT22;4587;51.434;6.788;2022-11-15T13:41:58;14.70;99.90
9103;DHT22;4587;51.434;6.788;2022-11-15T13:44:29;14.70;99.90
9103;DHT22;4587;51.434;6.788;2022-11-15T13:49:32;14.70;99.90
9103;DHT22;4587;51.434;6.788;2022-11-15T13:52:03;14.70;99.90
9103;DHT22;4587;51.434;6.788;2022-11-15T13:54:35;14.70;99.90
9103;DHT22;4587;51.434;6.788;2022-11-15T13:57:10;14.70;99.90
9103;DHT22;4587;51.434;6.788;2022-11-15T13:59:48;14.70;99.90
9103;DHT22;4587;51.434;6.788;2022-11-15T14:02:21;14.70;99.90
9103;DHT22;4587;51.434;6.788;2022-11-15T14:04:53;14.80;99.90
9103;DHT22;4587;51.434;6.788;2022-11-15T14:07:22;14.80;99.90
9103;DHT22;4587;51.434;6.788;2022-11-15T14:09:48;14.80;99.90
9103;DHT22;4587;51.434;6.788;2022-11-15T14:14:54;14.80;99.90
9103;DHT22;4587;51.434;6.788;2022-11-15T14:19:56;14.80;99.90
9103;DHT22;4587;51.434;6.788;2022-11-15T14:22:23;14.80;99.90
9103;DHT22;4587;51.434;6.788;2022-11-15T14:27:35;14.80;99.90
9103;DHT22;4587;51.434;6.788;2022-11-15T14:30:01;14.80;99.90
9103;DHT22;4587;51.434;6.788;2022-11-15T14:32:29;14.80;99.90
9103;DHT22;4587;51.434;6.788;2022-11-15T14:34:57;14.80;99.90
9103;DHT22;4587;51.434;6.788;2022-11-15T14:37:28;14.70;99.90
9103;DHT22;4587;51.434;6.788;2022-11-15T14:39:56;14.70;99.90
9103;DHT22;4587;51.434;6.788;2022-11-15T14:42:22;14.60;99.90
9103;DHT22;4587;51.434;6.788;2022-11-15T14:44:48;14.50;99.90
9103;DHT22;4587;51.434;6.788;2022-11-15T14:47:14;14.50;99.90
9103;DHT22;4587;51.434;6.788;2022-11-15T14:49:40;14.50;99.90
9103;DHT22;4587;51.434;6.788;2022-11-15T14:54:46;14.40;99.90
9103;DHT22;4587;51.434;6.788;2022-11-15T14:57:11;14.40;99.90
9103;DHT22;4587;51.434;6.788;2022-11-15T14:59:37;14.30;99.90
9103;DHT22;4587;51.434;6.788;2022-11-15T15:02:11;14.30;99.90
9103;DHT22;4587;51.434;6.788;2022-11-15T15:04:39;14.40;99.90
9103;DHT22;4587;51.434;6.788;2022-11-15T15:07:04;14.30;99.90
9103;DHT22;4587;51.434;6.788;2022-11-15T15:09:30;14.30;99.90
9103;DHT22;4587;51.434;6.788;2022-11-15T15:11:55;14.30;99.90
9103;DHT22;4587;51.434;6.788;2022-11-15T15:14:21;14.30;99.90
9103;DHT22;4587;51.434;6.788;2022-11-15T15:16:46;14.30;99.90
9103;DHT22;4587;51.434;6.788;2022-11-15T15:19:12;14.30;99.90
9103;DHT22;4587;51.434;6.788;2022-11-15T15:21:37;14.30;99.90
9103;DHT22;4587;51.434;6.788;2022-11-15T15:24:03;14.30;99.90
9103;DHT22;4587;51.434;6.788;2022-11-15T15:26:29;14.30;99.90
9103;DHT22;4587;51.434;6.788;2022-11-15T15:28:55;14.20;99.90
9103;DHT22;4587;51.434;6.788;2022-11-15T15:31:20;14.30;99.90
9103;DHT22;4587;51.434;6.788;2022-11-15T15:33:46;14.30;99.90
9103;DHT22;4587;51.434;6.788;2022-11-15T15:36:13;14.30;99.90
9103;DHT22;4587;51.434;6.788;2022-11-15T15:38:39;14.20;99.90
9103;DHT22;4587;51.434;6.788;2022-11-15T15:41:11;14.20;99.90
9103;DHT22;4587;51.434;6.788;2022-11-15T15:43:37;14.20;99.90
9103;DHT22;4587;51.434;6.788;2022-11-15T15:46:03;14.10;99.90
9103;DHT22;4587;51.434;6.788;2022-11-15T15:48:28;14.10;99.90
9103;DHT22;4587;51.434;6.788;2022-11-15T15:50:54;14.10;99.90
9103;DHT22;4587;51.434;6.788;2022-11-15T15:53:19;14.20;99.90
9103;DHT22;4587;51.434;6.788;2022-11-15T15:55:45;14.20;99.90
9103;DHT22;4587;51.434;6.788;2022-11-15T15:58:10;14.20;99.90
9103;DHT22;4587;51.434;6.788;2022-11-15T16:00:37;14.10;99.90
9103;DHT22;4587;51.434;6.788;2022-11-15T16:03:03;14.00;99.90
9103;DHT22;4587;51.434;6.788;2022-11-15T16:05:28;14.00;99.90
9103;DHT22;4587;51.434;6.788;2022-11-15T16:07:54;14.10;99.90
9103;DHT22;4587;51.434;6.788;2022-11-15T16:10:28;14.10;99.90
9103;DHT22;4587;51.434;6.788;2022-11-15T16:12:55;14.10;99.90
9103;DHT22;4587;51.434;6.788;2022-11-15T16:15:22;14.10;99.90
9103;DHT22;4587;51.434;6.788;2022-11-15T16:17:51;14.10;99.90
9103;DHT22;4587;51.434;6.788;2022-11-15T16:20:38;14.00;99.90
9103;DHT22;4587;51.434;6.788;2022-11-15T16:23:12;14.00;99.90
9103;DHT22;4587;51.434;6.788;2022-11-15T16:25:45;14.00;99.90
9103;DHT22;4587;51.434;6.788;2022-11-15T16:28:27;14.00;99.90
9103;DHT22;4587;51.434;6.788;2022-11-15T16:31:10;14.10;99.90
9103;DHT22;4587;51.434;6.788;2022-11-15T16:33:37;14.00;99.90
9103;DHT22;4587;51.434;6.788;2022-11-15T16:36:04;14.00;99.90
9103;DHT22;4587;51.434;6.788;2022-11-15T16:38:30;14.00;99.90
9103;DHT22;4587;51.434;6.788;2022-11-15T16:40:55;14.00;99.90
9103;DHT22;4587;51.434;6.788;2022-11-15T16:43:21;14.00;99.90
9103;DHT22;4587;51.434;6.788;2022-11-15T16:45:47;14.10;99.90
9103;DHT22;4587;51.434;6.788;2022-11-15T16:48:26;14.00;99.90
9103;DHT22;4587;51.434;6.788;2022-11-15T16:50:56;14.00;99.90
9103;DHT22;4587;51.434;6.788;2022-11-15T16:53:22;14.00;99.90
9103;DHT22;4587;51.434;6.788;2022-11-15T16:55:48;14.00;99.90
9103;DHT22;4587;51.434;6.788;2022-11-15T16:58:14;14.10;99.90
9103;DHT22;4587;51.434;6.788;2022-11-15T17:00:39;14.10;99.90
9103;DHT22;4587;51.434;6.788;2022-11-15T17:03:05;14.10;99.90
9103;DHT22;4587;51.434;6.788;2022-11-15T17:05:31;14.10;99.90
9103;DHT22;4587;51.434;6.788;2022-11-15T17:07:56;14.10;99.90
9103;DHT22;4587;51.434;6.788;2022-11-15T17:10:23;14.10;99.90
9103;DHT22;4587;51.434;6.788;2022-11-15T17:12:50;14.10;99.90
9103;DHT22;4587;51.434;6.788;2022-11-15T17:15:16;14.10;99.90
9103;DHT22;4587;51.434;6.788;2022-11-15T17:17:42;14.10;99.90
9103;DHT22;4587;51.434;6.788;2022-11-15T17:20:16;14.10;99.90
9103;DHT22;4587;51.434;6.788;2022-11-15T17:22:41;14.10;99.90
9103;DHT22;4587;51.434;6.788;2022-11-15T17:25:07;14.10;99.90
9103;DHT22;4587;51.434;6.788;2022-11-15T17:27:33;14.10;99.90
9103;DHT22;4587;51.434;6.788;2022-11-15T17:29:59;14.30;99.90
9103;DHT22;4587;51.434;6.788;2022-11-15T17:32:24;14.30;99.90
9103;DHT22;4587;51.434;6.788;2022-11-15T17:34:50;14.30;99.90
9103;DHT22;4587;51.434;6.788;2022-11-15T17:37:15;14.30;99.90
9103;DHT22;4587;51.434;6.788;2022-11-15T17:39:41;14.20;99.90
9103;DHT22;4587;51.434;6.788;2022-11-15T17:42:06;14.30;99.90
9103;DHT22;4587;51.434;6.788;2022-11-15T17:44:32;14.20;99.90
9103;DHT22;4587;51.434;6.788;2022-11-15T17:46:57;14.20;99.90
9103;DHT22;4587;51.434;6.788;2022-11-15T17:49:23;14.30;99.90
9103;DHT22;4587;51.434;6.788;2022-11-15T17:51:49;14.30;99.90
9103;DHT22;4587;51.434;6.788;2022-11-15T17:54:14;14.30;99.90